createdAt,value
2018-01-11T00:02:24.810Z,12.50
2018-01-11T00:04:53.243Z,12.60
2018-01-11T00:07:22.029Z,12.50
2018-01-11T00:09:53.040Z,12.50
2018-01-11T00:12:24.064Z,12.50
2018-01-11T00:14:53.064Z,12.50
2018-01-11T00:17:21.669Z,12.40
2018-01-11T00:19:50.394Z,12.40
2018-01-11T00:22:19.207Z,12.40
2018-01-11T00:24:48.242Z,12.40
2018-01-11T00:27:17.412Z,12.30
2018-01-11T00:29:46.854Z,12.30
2018-01-11T00:32:15.495Z,12.30
2018-01-11T00:34:43.950Z,12.30
2018-01-11T00:37:12.449Z,12.20
2018-01-11T00:39:54.042Z,12.20
2018-01-11T00:42:22.517Z,12.20
2018-01-11T00:44:51.241Z,12.20
2018-01-11T00:47:19.992Z,12.20
2018-01-11T00:49:49.122Z,12.10
2018-01-11T00:52:19.109Z,11.90
2018-01-11T00:54:50.761Z,11.90
2018-01-11T00:57:19.651Z,11.90
2018-01-11T00:59:48.095Z,11.80
2018-01-11T01:02:17.241Z,11.40
2018-01-11T01:04:45.707Z,11.40
2018-01-11T01:07:14.197Z,11.20
2018-01-11T01:09:42.565Z,11.00
2018-01-11T01:12:10.959Z,10.90
2018-01-11T01:14:40.953Z,10.70
2018-01-11T01:17:09.556Z,10.50
2018-01-11T01:19:38.163Z,10.40
2018-01-11T01:22:06.550Z,10.30
2018-01-11T01:24:34.967Z,10.60
2018-01-11T01:27:03.521Z,10.80
2018-01-11T01:29:32.064Z,11.10
2018-01-11T01:32:00.447Z,11.30
2018-01-11T01:34:28.862Z,11.30
2018-01-11T01:36:57.256Z,11.40
2018-01-11T01:39:25.601Z,11.50
2018-01-11T01:41:53.948Z,11.50
2018-01-11T01:44:23.445Z,11.60
2018-01-11T01:46:52.235Z,11.60
2018-01-11T01:49:20.717Z,11.60
2018-01-11T01:51:49.273Z,11.60
2018-01-11T01:54:17.740Z,11.50
2018-01-11T01:56:59.749Z,11.40
2018-01-11T01:59:28.231Z,11.30
2018-01-11T02:01:56.648Z,11.10
2018-01-11T02:04:25.191Z,11.20
2018-01-11T02:06:53.621Z,11.10
2018-01-11T02:09:22.134Z,11.00
2018-01-11T02:11:50.744Z,10.80
2018-01-11T02:17:22.069Z,10.70
2018-01-11T02:19:53.344Z,10.80
2018-01-11T02:22:22.582Z,10.90
2018-01-11T02:24:51.763Z,10.70
2018-01-11T02:27:26.584Z,10.70
2018-01-11T02:29:55.003Z,10.60
2018-01-11T02:32:24.193Z,10.70
2018-01-11T02:34:52.596Z,10.70
2018-01-11T02:37:21.142Z,10.80
2018-01-11T02:39:52.235Z,10.80
2018-01-11T02:42:20.582Z,10.90
2018-01-11T02:44:48.949Z,10.90
2018-01-11T02:47:17.333Z,11.00
2018-01-11T02:49:45.902Z,11.00
2018-01-11T02:52:19.650Z,11.00
2018-01-11T02:54:54.688Z,11.00
2018-01-11T02:57:28.355Z,11.10
2018-01-11T02:59:57.771Z,11.10
2018-01-11T03:02:32.575Z,11.10
2018-01-11T03:05:07.029Z,11.00
2018-01-11T03:07:35.423Z,11.10
2018-01-11T03:10:03.890Z,11.00
2018-01-11T03:12:32.534Z,10.90
2018-01-11T03:15:02.760Z,10.90
2018-01-11T03:17:36.467Z,10.90
2018-01-11T03:20:18.084Z,10.90
2018-01-11T03:22:46.485Z,10.90
2018-01-11T03:25:16.308Z,10.90
2018-01-11T03:27:50.273Z,10.90
2018-01-11T03:30:22.420Z,10.90
2018-01-11T03:32:58.692Z,10.90
2018-01-11T03:35:28.534Z,10.80
2018-01-11T03:37:56.908Z,10.90
2018-01-11T03:40:25.454Z,10.90
2018-01-11T03:42:54.173Z,10.90
2018-01-11T03:45:25.080Z,10.80
2018-01-11T03:47:59.703Z,10.90
2018-01-11T03:50:28.189Z,10.90
2018-01-11T03:52:56.770Z,10.90
2018-01-11T03:55:25.352Z,10.90
2018-01-11T03:57:53.785Z,10.80
2018-01-11T04:00:23.651Z,10.70
2018-01-11T04:02:52.055Z,10.70
2018-01-11T04:05:20.420Z,10.70
2018-01-11T04:07:48.765Z,10.70
2018-01-11T04:10:18.230Z,10.70
2018-01-11T04:12:46.767Z,10.80
2018-01-11T04:15:18.211Z,10.80
2018-01-11T04:17:47.312Z,10.70
2018-01-11T04:20:15.706Z,10.60
2018-01-11T04:22:44.122Z,10.60
2018-01-11T04:25:13.264Z,10.60
2018-01-11T04:27:41.732Z,10.50
2018-01-11T04:30:10.097Z,10.60
2018-01-11T04:32:38.516Z,10.60
2018-01-11T04:35:14.593Z,10.60
2018-01-11T04:37:45.642Z,10.60
2018-01-11T04:40:15.619Z,10.70
2018-01-11T04:42:45.840Z,10.60
2018-01-11T04:45:14.216Z,10.60
2018-01-11T04:47:42.647Z,10.60
2018-01-11T04:50:11.102Z,10.60
2018-01-11T04:52:40.418Z,10.60
2018-01-11T04:55:09.679Z,10.60
2018-01-11T04:57:45.982Z,10.60
2018-01-11T05:00:18.967Z,10.60
2018-01-11T05:02:47.364Z,10.60
2018-01-11T05:05:17.108Z,10.60
2018-01-11T05:07:45.478Z,10.60
2018-01-11T05:10:13.979Z,10.60
2018-01-11T05:12:42.424Z,10.60
2018-01-11T05:15:11.514Z,10.70
2018-01-11T05:17:40.617Z,10.70
2018-01-11T05:20:09.026Z,10.60
2018-01-11T05:22:37.626Z,10.70
2018-01-11T05:25:06.733Z,10.70
2018-01-11T05:27:35.202Z,10.70
2018-01-11T05:30:05.011Z,10.70
2018-01-11T05:32:33.478Z,10.70
2018-01-11T05:35:09.543Z,10.70
2018-01-11T05:37:38.997Z,10.70
2018-01-11T05:40:08.344Z,10.70
2018-01-11T05:42:36.820Z,10.80
2018-01-11T05:45:05.217Z,10.70
2018-01-11T05:47:40.974Z,10.70
2018-01-11T05:50:09.342Z,10.80
2018-01-11T05:52:37.806Z,10.90
2018-01-11T05:55:07.039Z,10.80
2018-01-11T05:57:35.423Z,10.80
2018-01-11T06:00:04.742Z,10.80
2018-01-11T06:02:38.751Z,10.60
2018-01-11T06:05:07.909Z,10.50
2018-01-11T06:07:36.375Z,10.50
2018-01-11T06:10:04.852Z,10.50
2018-01-11T06:12:33.542Z,10.40
2018-01-11T06:15:02.021Z,10.50
2018-01-11T06:17:30.501Z,10.50
2018-01-11T06:19:59.333Z,10.50
2018-01-11T06:22:29.865Z,10.50
2018-01-11T06:24:58.401Z,10.50
2018-01-11T06:27:26.759Z,10.50
2018-01-11T06:29:55.101Z,10.50
2018-01-11T06:32:31.124Z,10.40
2018-01-11T06:34:59.509Z,10.40
2018-01-11T06:37:27.904Z,10.40
2018-01-11T06:39:56.659Z,10.30
2018-01-11T06:42:25.088Z,10.40
2018-01-11T06:44:54.349Z,10.40
2018-01-11T06:47:24.071Z,10.30
2018-01-11T06:49:52.575Z,10.30
2018-01-11T06:52:26.496Z,10.40
2018-01-11T06:54:56.023Z,10.30
2018-01-11T06:57:24.411Z,10.30
2018-01-11T07:00:00.080Z,10.30
2018-01-11T07:02:29.718Z,10.40
2018-01-11T07:04:59.633Z,10.50
2018-01-11T07:07:28.179Z,10.50
2018-01-11T07:09:57.082Z,10.60
2018-01-11T07:12:26.674Z,10.60
2018-01-11T07:14:55.164Z,10.70
2018-01-11T07:17:24.104Z,10.70
2018-01-11T07:19:53.658Z,10.80
2018-01-11T07:22:22.823Z,10.80
2018-01-11T07:25:05.131Z,10.90
2018-01-11T07:27:34.624Z,11.00
2018-01-11T07:30:11.156Z,10.90
2018-01-11T07:32:39.823Z,10.80
2018-01-11T07:35:21.408Z,10.80
2018-01-11T07:37:57.708Z,10.80
2018-01-11T07:40:27.594Z,10.80
2018-01-11T07:42:56.267Z,10.70
2018-01-11T07:45:24.859Z,10.70
2018-01-11T07:47:53.528Z,10.70
2018-01-11T07:50:22.009Z,10.70
2018-01-11T07:52:50.566Z,10.70
2018-01-11T07:55:18.965Z,10.80
2018-01-11T07:57:52.897Z,10.90
2018-01-11T08:00:21.976Z,11.00
2018-01-11T08:02:50.432Z,11.30
2018-01-11T08:05:18.829Z,11.60
2018-01-11T08:07:47.318Z,11.90
2018-01-11T08:10:15.796Z,12.10
2018-01-11T08:12:44.234Z,12.00
2018-01-11T08:15:13.361Z,11.90
2018-01-11T08:17:43.689Z,11.90
2018-01-11T08:20:12.133Z,11.70
2018-01-11T08:22:47.008Z,11.50
2018-01-11T08:25:15.766Z,11.50
2018-01-11T08:27:44.430Z,11.40
2018-01-11T08:30:13.631Z,11.50
2018-01-11T08:32:42.830Z,11.90
2018-01-11T08:35:12.030Z,12.20
2018-01-11T08:37:41.172Z,12.80
2018-01-11T08:40:09.555Z,12.80
2018-01-11T08:42:44.019Z,13.40
2018-01-11T08:45:12.909Z,13.00
2018-01-11T08:47:41.746Z,12.80
2018-01-11T08:50:10.193Z,13.50
2018-01-11T08:52:46.493Z,13.70
2018-01-11T08:55:15.384Z,13.60
2018-01-11T08:57:43.864Z,13.80
2018-01-11T09:00:15.627Z,13.60
2018-01-11T09:02:45.517Z,13.20
2018-01-11T09:05:14.000Z,14.00
2018-01-11T09:07:42.410Z,14.10
2018-01-11T09:10:10.959Z,14.40
2018-01-11T09:12:39.439Z,15.00
2018-01-11T09:15:14.568Z,14.90
2018-01-11T09:17:56.731Z,14.80
2018-01-11T09:20:25.162Z,15.30
2018-01-11T09:22:53.490Z,15.70
2018-01-11T09:25:21.827Z,15.40
2018-01-11T09:27:50.133Z,15.20
2018-01-11T09:30:18.662Z,15.30
2018-01-11T09:32:51.050Z,15.80
2018-01-11T09:35:19.460Z,15.80
2018-01-11T09:37:49.609Z,15.20
2018-01-11T09:40:20.355Z,15.40
2018-01-11T09:42:49.075Z,15.30
2018-01-11T09:45:17.583Z,15.60
2018-01-11T09:47:46.027Z,15.40
2018-01-11T09:50:14.398Z,15.80
2018-01-11T09:52:42.891Z,16.40
2018-01-11T09:55:11.289Z,16.20
2018-01-11T09:57:55.415Z,15.90
2018-01-11T10:00:24.121Z,15.90
2018-01-11T10:02:52.792Z,15.60
2018-01-11T10:05:21.202Z,15.50
2018-01-11T10:07:50.668Z,15.40
2018-01-11T10:10:19.148Z,16.20
2018-01-11T10:12:47.633Z,17.10
2018-01-11T10:15:16.106Z,16.50
2018-01-11T10:17:44.499Z,16.00
2018-01-11T10:20:18.561Z,16.60
2018-01-11T10:22:54.676Z,16.50
2018-01-11T10:25:22.964Z,16.50
2018-01-11T10:27:51.344Z,16.50
2018-01-11T10:30:23.077Z,17.50
2018-01-11T10:32:54.929Z,17.50
2018-01-11T10:35:23.311Z,17.80
2018-01-11T10:37:51.852Z,18.00
2018-01-11T10:40:20.311Z,18.30
2018-01-11T10:42:48.851Z,19.20
2018-01-11T10:45:17.953Z,18.00
2018-01-11T10:47:46.243Z,17.10
2018-01-11T10:50:15.630Z,17.10
2018-01-11T10:52:58.890Z,17.40
2018-01-11T10:55:28.180Z,18.10
2018-01-11T10:57:56.897Z,18.10
2018-01-11T11:00:26.563Z,18.60
2018-01-11T11:03:08.317Z,18.80
2018-01-11T11:05:44.853Z,18.90
2018-01-11T11:08:13.228Z,17.20
2018-01-11T11:10:41.669Z,18.10
2018-01-11T11:13:10.153Z,18.20
2018-01-11T11:15:38.516Z,17.80
2018-01-11T11:18:07.010Z,18.40
2018-01-11T11:20:36.220Z,18.30
2018-01-11T11:23:04.739Z,18.50
2018-01-11T11:25:33.274Z,18.30
2018-01-11T11:28:01.657Z,18.00
2018-01-11T11:30:31.138Z,18.60
2018-01-11T11:32:59.589Z,19.60
2018-01-11T11:35:28.729Z,20.30
2018-01-11T11:37:57.006Z,20.20
2018-01-11T11:40:25.295Z,20.70
2018-01-11T11:42:53.782Z,20.20
2018-01-11T11:45:22.189Z,20.40
2018-01-11T11:47:51.364Z,19.70
2018-01-11T11:50:19.719Z,19.70
2018-01-11T11:52:48.243Z,20.50
2018-01-11T11:55:18.065Z,20.20
2018-01-11T11:57:47.878Z,19.00
2018-01-11T12:00:20.893Z,18.90
2018-01-11T12:02:49.709Z,18.80
2018-01-11T12:05:31.185Z,19.00
2018-01-11T12:07:59.469Z,19.10
2018-01-11T12:10:27.862Z,19.10
2018-01-11T12:13:09.218Z,20.50
2018-01-11T12:15:43.661Z,20.60
2018-01-11T12:18:11.984Z,18.40
2018-01-11T12:20:41.220Z,17.90
2018-01-11T12:23:15.689Z,17.90
2018-01-11T12:25:50.483Z,18.70
2018-01-11T12:28:18.979Z,18.70
2018-01-11T12:30:47.737Z,19.20
2018-01-11T12:33:16.603Z,19.40
2018-01-11T12:36:00.377Z,18.60
2018-01-11T12:38:28.853Z,19.00
2018-01-11T12:40:57.440Z,19.00
2018-01-11T12:43:25.917Z,19.10
2018-01-11T12:46:02.284Z,19.20
2018-01-11T12:48:31.105Z,18.40
2018-01-11T12:51:00.476Z,18.70
2018-01-11T12:53:29.160Z,18.70
2018-01-11T12:55:57.994Z,18.20
2018-01-11T12:58:27.398Z,18.80
2018-01-11T13:00:56.689Z,18.20
2018-01-11T13:03:26.008Z,18.10
2018-01-11T13:05:55.119Z,18.50
2018-01-11T13:08:26.089Z,18.80
2018-01-11T13:10:54.981Z,18.70
2018-01-11T13:13:23.639Z,18.70
2018-01-11T13:15:52.716Z,18.20
2018-01-11T13:18:21.340Z,18.20
2018-01-11T13:20:50.328Z,17.90
2018-01-11T13:23:20.089Z,17.70
2018-01-11T13:25:48.433Z,18.20
2018-01-11T13:28:16.776Z,17.90
2018-01-11T13:30:45.105Z,16.80
2018-01-11T13:33:13.450Z,17.00
2018-01-11T13:35:41.810Z,16.70
2018-01-11T13:38:10.167Z,17.10
2018-01-11T13:40:39.240Z,17.00
2018-01-11T13:43:07.915Z,17.00
2018-01-11T13:45:37.362Z,17.60
2018-01-11T13:48:08.231Z,18.30
2018-01-11T13:50:36.643Z,18.40
2018-01-11T13:53:05.086Z,19.00
2018-01-11T13:55:33.567Z,19.60
2018-01-11T13:58:02.768Z,19.40
2018-01-11T14:00:31.253Z,17.90
2018-01-11T14:03:00.240Z,18.10
2018-01-11T14:05:36.706Z,18.50
2018-01-11T14:08:05.104Z,18.90
2018-01-11T14:10:34.590Z,18.10
2018-01-11T14:13:03.889Z,18.10
2018-01-11T14:15:32.382Z,17.90
2018-01-11T14:18:00.850Z,18.60
2018-01-11T14:20:29.333Z,18.20
2018-01-11T14:22:57.766Z,17.90
2018-01-11T14:25:27.141Z,18.00
2018-01-11T14:28:04.119Z,18.00
2018-01-11T14:30:32.572Z,17.30
2018-01-11T14:33:01.227Z,18.30
2018-01-11T14:35:30.561Z,20.10
2018-01-11T14:38:02.484Z,20.00
2018-01-11T14:40:31.922Z,20.70
2018-01-11T14:43:02.664Z,20.60
2018-01-11T14:45:31.077Z,20.90
2018-01-11T14:47:59.414Z,20.30
2018-01-11T14:50:28.102Z,18.60
2018-01-11T15:36:38.960Z,18.30
2018-01-11T15:39:07.442Z,18.30
2018-01-11T15:41:36.550Z,17.70
2018-01-11T15:44:05.158Z,17.40
2018-01-11T15:46:33.712Z,17.90
2018-01-11T15:49:04.113Z,17.00
2018-01-11T15:51:32.731Z,16.20
2018-01-11T15:54:02.010Z,17.30
2018-01-11T15:56:31.953Z,17.30
2018-01-11T15:59:00.336Z,16.10
2018-01-11T16:01:38.920Z,16.40
2018-01-11T16:04:07.280Z,16.10
2018-01-11T16:06:43.683Z,15.90
2018-01-11T16:09:12.069Z,15.90
2018-01-11T16:11:40.798Z,16.00
2018-01-11T16:14:11.206Z,15.10
2018-01-11T16:16:39.651Z,15.10
2018-01-11T16:19:08.221Z,14.80
2018-01-11T16:21:37.718Z,14.40
2018-01-11T16:24:07.301Z,14.00
2018-01-11T16:26:36.011Z,13.80
2018-01-11T16:29:06.909Z,13.70
2018-01-11T16:31:41.620Z,13.40
2018-01-11T16:34:10.163Z,13.30
2018-01-11T16:36:40.749Z,13.30
2018-01-11T16:39:10.881Z,13.00
2018-01-11T16:41:39.534Z,13.00
2018-01-11T16:44:13.345Z,13.00
2018-01-11T16:46:41.888Z,12.90
2018-01-11T16:49:10.212Z,12.80
2018-01-11T16:51:41.273Z,12.80
2018-01-11T16:54:09.937Z,12.80
2018-01-11T16:56:38.370Z,12.70
2018-01-11T16:59:07.365Z,12.50
2018-01-11T17:01:37.917Z,12.30
2018-01-11T17:04:06.270Z,12.20
2018-01-11T17:06:34.648Z,12.00
2018-01-11T17:09:03.399Z,11.80
2018-01-11T17:11:32.621Z,11.40
2018-01-11T17:14:04.195Z,11.40
2018-01-11T17:16:32.568Z,11.30
2018-01-11T17:19:01.251Z,11.10
2018-01-11T17:21:29.656Z,10.90
2018-01-11T17:24:06.136Z,10.80
2018-01-11T17:26:34.784Z,10.70
2018-01-11T17:29:07.170Z,10.70
2018-01-11T17:31:42.609Z,10.70
2018-01-11T17:34:12.083Z,10.80
2018-01-11T17:36:40.693Z,10.80
2018-01-11T17:39:15.516Z,10.70
2018-01-11T17:41:43.879Z,10.60
2018-01-11T17:44:12.322Z,10.60
2018-01-11T17:46:41.664Z,10.40
2018-01-11T17:49:10.987Z,10.20
2018-01-11T17:51:39.356Z,10.20
2018-01-11T17:54:08.704Z,10.20
2018-01-11T17:56:37.251Z,10.10
2018-01-11T17:59:05.648Z,10.00
2018-01-11T18:01:34.208Z,9.90
2018-01-11T18:04:03.095Z,9.80
2018-01-11T18:06:31.574Z,9.70
2018-01-11T18:09:00.807Z,9.70
2018-01-11T18:11:29.456Z,9.60
2018-01-11T18:13:58.139Z,9.60
2018-01-11T18:16:28.113Z,9.70
2018-01-11T18:18:57.414Z,9.80
2018-01-11T18:21:26.093Z,9.80
2018-01-11T18:26:41.353Z,9.90
2018-01-11T18:29:16.712Z,10.00
2018-01-11T18:31:47.141Z,10.20
2018-01-11T18:34:20.077Z,10.30
2018-01-11T18:36:48.612Z,10.20
2018-01-11T18:39:17.201Z,10.20
2018-01-11T18:41:45.791Z,10.20
2018-01-11T18:44:15.353Z,10.60
2018-01-11T18:46:47.872Z,10.60
2018-01-11T18:49:18.567Z,10.50
2018-01-11T18:51:47.804Z,10.50
2018-01-11T18:54:22.284Z,10.60
2018-01-11T18:56:50.977Z,10.60
2018-01-11T18:59:28.330Z,10.70
2018-01-11T19:01:57.423Z,10.80
2018-01-11T19:04:26.878Z,10.80
2018-01-11T19:06:56.888Z,10.90
2018-01-11T19:09:25.228Z,11.00
2018-01-11T19:11:54.045Z,11.00
2018-01-11T19:14:23.667Z,10.80
2018-01-11T19:16:53.565Z,10.80
2018-01-11T19:19:23.133Z,10.60
2018-01-11T19:21:53.833Z,10.60
2018-01-11T19:24:32.014Z,10.60
2018-01-11T19:27:06.111Z,10.50
2018-01-11T19:29:38.119Z,10.60
2018-01-11T19:32:14.417Z,10.60
2018-01-11T19:34:49.792Z,10.70
2018-01-11T19:37:25.059Z,10.80
2018-01-11T19:39:56.028Z,10.90
2018-01-11T19:42:26.098Z,10.90
2018-01-11T19:45:17.483Z,10.90
2018-01-11T19:47:47.257Z,10.90
2018-01-11T19:50:33.000Z,10.90
2018-01-11T19:53:01.479Z,10.90
2018-01-11T19:55:36.782Z,10.90
2018-01-11T19:58:09.606Z,10.80
2018-01-11T20:00:38.400Z,10.80
2018-01-11T20:03:06.932Z,10.70
2018-01-11T20:05:41.685Z,10.60
2018-01-11T20:08:24.806Z,10.60
2018-01-11T20:10:55.174Z,10.90
2018-01-11T20:13:27.398Z,10.90
2018-01-11T20:15:56.979Z,10.90
2018-01-11T20:18:39.367Z,11.00
2018-01-11T20:21:08.371Z,11.00
2018-01-11T20:23:39.829Z,11.00
2018-01-11T20:26:11.501Z,11.10
2018-01-11T20:28:42.600Z,11.00
2018-01-11T20:31:26.899Z,10.90
2018-01-11T20:34:02.295Z,10.80
2018-01-11T20:36:35.609Z,10.70
2018-01-11T20:39:05.392Z,10.60
2018-01-11T20:41:35.631Z,10.50
2018-01-11T20:44:04.807Z,10.50
2018-01-11T20:46:33.538Z,10.70
2018-01-11T20:49:02.129Z,10.80
2018-01-11T20:51:31.936Z,10.60
2018-01-11T20:54:01.279Z,10.40
2018-01-11T20:56:31.729Z,10.40
2018-01-11T20:59:00.181Z,10.30
2018-01-11T21:01:28.614Z,10.10
2018-01-11T21:03:59.057Z,10.00
2018-01-11T21:06:27.996Z,10.00
2018-01-11T21:09:03.103Z,10.00
2018-01-11T21:11:32.010Z,10.10
2018-01-11T21:14:01.003Z,10.10
2018-01-11T21:16:48.218Z,10.10
2018-01-11T21:19:18.605Z,10.30
2018-01-11T21:21:59.809Z,10.30
2018-01-11T21:24:29.442Z,10.40
2018-01-11T21:26:58.109Z,10.30
2018-01-11T21:29:26.746Z,10.40
2018-01-11T21:31:55.279Z,10.40
2018-01-11T21:34:24.747Z,10.50
2018-01-11T21:36:58.194Z,10.40
2018-01-11T21:39:32.903Z,10.80
2018-01-11T21:42:06.528Z,10.90
2018-01-11T21:44:35.127Z,11.00
2018-01-11T21:47:07.134Z,10.90
2018-01-11T21:49:37.451Z,10.80
2018-01-11T21:52:06.156Z,10.90
2018-01-11T21:54:38.162Z,10.90
2018-01-11T21:57:08.429Z,10.90
2018-01-11T21:59:37.742Z,10.80
2018-01-11T22:02:16.911Z,10.70
2018-01-11T22:04:50.893Z,10.80
2018-01-11T22:07:22.329Z,10.70
2018-01-11T22:09:52.003Z,10.70
2018-01-11T22:12:21.977Z,10.60
2018-01-11T22:14:50.898Z,10.60
2018-01-11T22:17:20.033Z,10.50
2018-01-11T22:20:03.450Z,10.50
2018-01-11T22:22:33.905Z,10.50
2018-01-11T22:25:06.662Z,10.50
2018-01-11T22:27:36.484Z,10.50
2018-01-11T22:30:05.258Z,10.40
2018-01-11T22:32:34.418Z,10.50
2018-01-11T22:35:03.106Z,10.40
2018-01-11T22:37:31.628Z,10.30
2018-01-11T22:40:01.250Z,10.40
2018-01-11T22:42:39.410Z,10.40
2018-01-11T22:45:08.993Z,10.30
2018-01-11T22:47:38.799Z,10.30
2018-01-11T22:50:07.238Z,10.20
2018-01-11T22:52:36.583Z,10.00
2018-01-11T22:55:05.163Z,9.90
2018-01-11T22:57:33.937Z,10.00
2018-01-11T23:00:03.594Z,10.00
2018-01-11T23:02:33.532Z,10.20
2018-01-11T23:05:02.994Z,10.20
2018-01-11T23:07:31.572Z,10.20
2018-01-11T23:10:00.026Z,10.20
2018-01-11T23:12:40.656Z,10.10
2018-01-11T23:15:20.771Z,10.20
2018-01-11T23:17:49.750Z,10.20
2018-01-11T23:20:23.924Z,10.00
2018-01-11T23:22:53.536Z,9.80
2018-01-11T23:25:24.620Z,9.90
2018-01-11T23:27:56.360Z,9.90
2018-01-11T23:30:25.160Z,9.90
2018-01-11T23:32:53.746Z,10.00
2018-01-11T23:35:22.156Z,10.00
2018-01-11T23:37:51.758Z,10.00
2018-01-11T23:40:22.014Z,10.00
2018-01-11T23:42:51.218Z,9.90
2018-01-11T23:45:20.477Z,9.90
2018-01-11T23:47:49.189Z,9.80
2018-01-11T23:50:17.720Z,9.70
2018-01-11T23:52:46.159Z,9.60
2018-01-11T23:55:15.339Z,9.80
2018-01-11T23:57:43.784Z,9.70
